createdAt,value
2019-04-27T00:00:04.658Z,10.40
2019-04-27T00:01:10.433Z,10.40
2019-04-27T00:02:05.660Z,10.40
2019-04-27T00:03:05.967Z,10.40
2019-04-27T00:04:05.453Z,10.40
2019-04-27T00:05:04.803Z,10.40
2019-04-27T00:06:08.229Z,10.40
2019-04-27T00:07:10.190Z,10.30
2019-04-27T00:08:05.281Z,10.30
2019-04-27T00:09:07.462Z,10.30
2019-04-27T00:10:08.080Z,10.30
2019-04-27T00:11:08.608Z,10.30
2019-04-27T00:12:05.622Z,10.30
2019-04-27T00:13:07.580Z,10.30
2019-04-27T00:14:05.615Z,10.30
2019-04-27T00:15:09.781Z,10.30
2019-04-27T00:16:09.668Z,10.20
2019-04-27T00:17:05.371Z,10.30
2019-04-27T00:18:04.919Z,10.30
2019-04-27T00:19:05.487Z,10.30
2019-04-27T00:20:05.631Z,10.30
2019-04-27T00:21:08.207Z,10.30
2019-04-27T00:22:05.263Z,10.20
2019-04-27T00:23:08.153Z,10.30
2019-04-27T00:24:05.186Z,10.20
2019-04-27T00:25:05.434Z,10.30
2019-04-27T00:26:12.728Z,10.30
2019-04-27T00:27:10.301Z,10.30
2019-04-27T00:28:05.611Z,10.20
2019-04-27T00:29:04.873Z,10.30
2019-04-27T00:30:05.096Z,10.30
2019-04-27T00:31:07.722Z,10.30
2019-04-27T00:32:07.354Z,10.20
2019-04-27T00:33:10.599Z,10.30
2019-04-27T00:34:05.601Z,10.30
2019-04-27T00:35:04.976Z,10.30
2019-04-27T00:36:05.356Z,10.20
2019-04-27T00:37:05.648Z,10.20
2019-04-27T00:38:09.891Z,10.20
2019-04-27T00:39:05.241Z,10.30
2019-04-27T00:40:05.551Z,10.30
2019-04-27T00:41:04.687Z,10.30
2019-04-27T00:42:04.920Z,10.30
2019-04-27T00:43:05.074Z,10.30
2019-04-27T00:44:08.221Z,10.30
2019-04-27T00:45:05.507Z,10.30
2019-04-27T00:46:07.313Z,10.20
2019-04-27T00:47:07.893Z,10.30
2019-04-27T00:48:04.891Z,10.20
2019-04-27T00:49:05.104Z,10.20
2019-04-27T00:50:05.262Z,10.30
2019-04-27T00:51:05.407Z,10.20
2019-04-27T00:52:05.503Z,10.20
2019-04-27T00:53:05.798Z,10.20
2019-04-27T00:54:04.926Z,10.20
2019-04-27T00:55:05.098Z,10.20
2019-04-27T00:56:05.335Z,10.20
2019-04-27T00:57:05.510Z,10.20
2019-04-27T00:58:05.757Z,10.20
2019-04-27T00:59:05.128Z,10.20
2019-04-27T01:00:05.312Z,10.20
2019-04-27T01:01:05.559Z,10.20
2019-04-27T01:02:07.558Z,10.20
2019-04-27T01:03:05.689Z,10.20
2019-04-27T01:04:05.047Z,10.20
2019-04-27T01:05:05.864Z,10.20
2019-04-27T01:06:05.140Z,10.20
2019-04-27T01:07:05.414Z,10.20
2019-04-27T01:08:05.584Z,10.20
2019-04-27T01:09:10.028Z,10.20
2019-04-27T01:10:05.280Z,10.20
2019-04-27T01:11:05.677Z,10.20
2019-04-27T01:12:07.384Z,10.20
2019-04-27T01:13:05.328Z,10.20
2019-04-27T01:14:07.944Z,10.20
2019-04-27T01:15:04.895Z,10.10
2019-04-27T01:16:05.087Z,10.20
2019-04-27T01:17:06.201Z,10.20
2019-04-27T01:18:11.883Z,10.20
2019-04-27T01:19:05.639Z,10.20
2019-04-27T01:20:04.868Z,10.20
2019-04-27T01:21:05.091Z,10.20
2019-04-27T01:22:08.705Z,10.20
2019-04-27T01:23:04.895Z,10.20
2019-04-27T01:24:05.000Z,10.20
2019-04-27T01:25:08.758Z,10.30
2019-04-27T01:26:04.872Z,10.20
2019-04-27T01:27:05.154Z,10.30
2019-04-27T01:28:05.368Z,10.30
2019-04-27T01:29:07.262Z,10.20
2019-04-27T01:30:05.476Z,10.20
2019-04-27T01:31:10.663Z,10.30
2019-04-27T01:32:05.643Z,10.20
2019-04-27T01:33:04.811Z,10.30
2019-04-27T01:34:09.073Z,10.30
2019-04-27T01:35:08.606Z,10.20
2019-04-27T01:36:05.067Z,10.30
2019-04-27T01:37:09.447Z,10.30
2019-04-27T01:38:09.000Z,10.20
2019-04-27T01:39:08.461Z,10.30
2019-04-27T01:40:09.647Z,10.30
2019-04-27T01:41:04.997Z,10.20
2019-04-27T01:42:05.166Z,10.30
2019-04-27T01:43:05.290Z,10.20
2019-04-27T01:44:05.431Z,10.30
2019-04-27T01:45:05.695Z,10.30
2019-04-27T01:46:04.912Z,10.30
2019-04-27T01:47:05.072Z,10.30
2019-04-27T01:48:05.267Z,10.30
2019-04-27T01:49:09.009Z,10.30
2019-04-27T01:50:05.276Z,10.30
2019-04-27T01:51:05.458Z,10.30
2019-04-27T01:52:05.554Z,10.30
2019-04-27T01:53:05.619Z,10.30
2019-04-27T01:54:04.875Z,10.30
2019-04-27T01:55:05.118Z,10.30
2019-04-27T01:56:05.254Z,10.30
2019-04-27T01:57:07.828Z,10.20
2019-04-27T01:58:08.807Z,10.30
2019-04-27T01:59:04.938Z,10.20
2019-04-27T02:00:05.107Z,10.30
2019-04-27T02:01:05.265Z,10.20
2019-04-27T02:02:05.618Z,10.30
2019-04-27T02:03:04.739Z,10.30
2019-04-27T02:04:04.912Z,10.30
2019-04-27T02:05:08.926Z,10.20
2019-04-27T02:06:09.158Z,10.20
2019-04-27T02:07:05.215Z,10.20
2019-04-27T02:08:05.319Z,10.20
2019-04-27T02:09:05.603Z,10.20
2019-04-27T02:10:05.063Z,10.20
2019-04-27T02:11:05.212Z,10.30
2019-04-27T02:12:09.334Z,10.20
2019-04-27T02:13:08.911Z,10.30
2019-04-27T02:14:05.001Z,10.30
2019-04-27T02:15:05.125Z,10.30
2019-04-27T02:16:08.988Z,10.30
2019-04-27T02:17:05.141Z,10.30
2019-04-27T02:18:09.437Z,10.20
2019-04-27T02:19:05.593Z,10.30
2019-04-27T02:20:04.722Z,10.20
2019-04-27T02:21:08.954Z,10.30
2019-04-27T02:22:05.377Z,10.20
2019-04-27T02:23:09.084Z,10.30
2019-04-27T02:24:05.252Z,10.20
2019-04-27T02:25:05.369Z,10.30
2019-04-27T02:26:05.569Z,10.30
2019-04-27T02:27:04.724Z,10.30
2019-04-27T02:28:09.391Z,10.30
2019-04-27T02:29:08.776Z,10.30
2019-04-27T02:30:07.436Z,10.30
2019-04-27T02:31:05.529Z,10.30
2019-04-27T02:32:10.161Z,10.30
2019-04-27T02:33:09.789Z,10.30
2019-04-27T02:34:04.853Z,10.30
2019-04-27T02:35:05.214Z,10.30
2019-04-27T02:36:05.386Z,10.30
2019-04-27T02:37:10.138Z,10.30
2019-04-27T02:38:05.381Z,10.30
2019-04-27T02:39:09.467Z,10.40
2019-04-27T02:40:05.691Z,10.30
2019-04-27T02:41:04.878Z,10.30
2019-04-27T02:42:04.980Z,10.40
2019-04-27T02:43:05.121Z,10.40
2019-04-27T02:44:05.455Z,10.40
2019-04-27T02:45:09.605Z,10.30
2019-04-27T02:46:04.871Z,10.30
2019-04-27T02:47:09.968Z,10.40
2019-04-27T02:48:05.785Z,10.30
2019-04-27T02:49:07.039Z,10.30
2019-04-27T02:50:05.535Z,10.30
2019-04-27T02:51:10.019Z,10.30
2019-04-27T02:52:05.214Z,10.30
2019-04-27T02:53:11.182Z,10.30
2019-04-27T02:54:05.254Z,10.30
2019-04-27T02:55:09.511Z,10.30
2019-04-27T02:56:10.339Z,10.30
2019-04-27T02:57:05.509Z,10.20
2019-04-27T02:58:05.607Z,10.30
2019-04-27T02:59:09.491Z,10.20
2019-04-27T03:00:07.569Z,10.20
2019-04-27T03:01:05.212Z,10.20
2019-04-27T03:02:05.450Z,10.30
2019-04-27T03:03:05.600Z,10.20
2019-04-27T03:04:05.610Z,10.30
2019-04-27T03:05:04.776Z,10.20
2019-04-27T03:06:05.189Z,10.20
2019-04-27T03:07:05.271Z,10.20
2019-04-27T03:08:05.837Z,10.20
2019-04-27T03:09:09.652Z,10.20
2019-04-27T03:10:09.833Z,10.20
2019-04-27T03:11:09.609Z,10.20
2019-04-27T03:12:04.867Z,10.20
2019-04-27T03:13:04.971Z,10.20
2019-04-27T03:14:05.153Z,10.20
2019-04-27T03:15:05.271Z,10.20
2019-04-27T03:16:07.912Z,10.20
2019-04-27T03:17:05.055Z,10.20
2019-04-27T03:18:09.798Z,10.20
2019-04-27T03:19:14.167Z,10.20
2019-04-27T03:20:10.451Z,10.20
2019-04-27T03:21:04.708Z,10.20
2019-04-27T03:22:09.625Z,10.20
2019-04-27T03:23:05.830Z,10.20
2019-04-27T03:24:04.925Z,10.20
2019-04-27T03:25:05.097Z,10.20
2019-04-27T03:26:13.002Z,10.20
2019-04-27T03:27:05.095Z,10.20
2019-04-27T03:28:05.265Z,10.20
2019-04-27T03:29:09.334Z,10.20
2019-04-27T03:30:04.999Z,10.20
2019-04-27T03:31:05.259Z,10.20
2019-04-27T03:32:12.118Z,10.20
2019-04-27T03:33:05.050Z,10.20
2019-04-27T03:34:11.798Z,10.20
2019-04-27T03:35:07.317Z,10.20
2019-04-27T03:36:05.331Z,10.20
2019-04-27T03:37:05.426Z,10.20
2019-04-27T03:38:09.936Z,10.20
2019-04-27T03:39:05.652Z,10.10
2019-04-27T03:40:05.181Z,10.10
2019-04-27T03:41:05.441Z,10.20
2019-04-27T03:42:05.601Z,10.20
2019-04-27T03:43:04.674Z,10.20
2019-04-27T03:44:05.584Z,10.20
2019-04-27T03:45:04.883Z,10.10
2019-04-27T03:46:05.411Z,10.10
2019-04-27T03:47:05.552Z,10.10
2019-04-27T03:48:10.293Z,10.10
2019-04-27T03:49:05.465Z,10.10
2019-04-27T03:50:05.671Z,10.10
2019-04-27T03:51:09.899Z,10.10
2019-04-27T03:52:09.601Z,10.10
2019-04-27T03:53:05.082Z,10.10
2019-04-27T03:54:10.690Z,10.10
2019-04-27T03:55:05.006Z,10.10
2019-04-27T03:56:05.157Z,10.10
2019-04-27T03:57:05.670Z,10.10
2019-04-27T03:58:12.446Z,10.10
2019-04-27T03:59:10.503Z,10.00
2019-04-27T04:00:05.486Z,10.10
2019-04-27T04:01:10.506Z,10.10
2019-04-27T04:02:09.924Z,10.00
2019-04-27T04:03:05.628Z,10.00
2019-04-27T04:04:09.974Z,10.00
2019-04-27T04:05:09.786Z,10.00
2019-04-27T04:06:05.228Z,10.00
2019-04-27T04:07:09.532Z,10.00
2019-04-27T04:08:04.706Z,10.00
2019-04-27T04:09:09.777Z,10.00
2019-04-27T04:10:05.380Z,10.00
2019-04-27T04:11:04.760Z,10.00
2019-04-27T04:12:09.546Z,10.00
2019-04-27T04:13:04.803Z,10.10
2019-04-27T04:14:05.050Z,10.00
2019-04-27T04:15:09.920Z,10.00
2019-04-27T04:16:07.594Z,10.10
2019-04-27T04:17:09.827Z,10.10
2019-04-27T04:18:04.769Z,10.00
2019-04-27T04:19:09.684Z,10.10
2019-04-27T04:20:04.989Z,10.10
2019-04-27T04:21:05.106Z,10.10
2019-04-27T04:22:10.213Z,10.10
2019-04-27T04:23:10.089Z,10.10
2019-04-27T04:24:08.965Z,10.10
2019-04-27T04:25:10.395Z,10.10
2019-04-27T04:26:04.789Z,10.10
2019-04-27T04:27:04.918Z,10.10
2019-04-27T04:28:09.364Z,10.10
2019-04-27T04:29:05.574Z,10.00
2019-04-27T04:30:04.881Z,10.10
2019-04-27T04:31:05.220Z,10.10
2019-04-27T04:32:10.314Z,10.10
2019-04-27T04:33:05.781Z,10.10
2019-04-27T04:34:04.990Z,10.10
2019-04-27T04:35:05.367Z,10.10
2019-04-27T04:36:09.993Z,10.10
2019-04-27T04:37:09.257Z,10.10
2019-04-27T04:38:05.382Z,10.10
2019-04-27T04:39:05.589Z,10.10
2019-04-27T04:40:04.909Z,10.10
2019-04-27T04:41:05.317Z,10.10
2019-04-27T04:42:10.129Z,10.10
2019-04-27T04:43:05.420Z,10.10
2019-04-27T04:44:05.658Z,10.10
2019-04-27T04:45:04.879Z,10.10
2019-04-27T04:46:05.127Z,10.10
2019-04-27T04:47:05.482Z,10.10
2019-04-27T04:48:09.783Z,10.10
2019-04-27T04:49:05.140Z,10.10
2019-04-27T04:50:10.496Z,10.10
2019-04-27T04:51:05.127Z,10.10
2019-04-27T04:52:05.378Z,10.10
2019-04-27T04:53:12.154Z,10.10
2019-04-27T04:54:05.038Z,10.10
2019-04-27T04:55:04.817Z,10.10
2019-04-27T04:56:06.265Z,10.10
2019-04-27T04:57:04.938Z,10.10
2019-04-27T04:58:05.107Z,10.10
2019-04-27T04:59:10.172Z,10.10
2019-04-27T05:00:05.667Z,10.10
2019-04-27T05:01:09.713Z,10.10
2019-04-27T05:02:05.054Z,10.10
2019-04-27T05:03:05.418Z,10.10
2019-04-27T05:04:09.074Z,10.10
2019-04-27T05:05:05.544Z,10.10
2019-04-27T05:06:04.801Z,10.10
2019-04-27T05:07:05.018Z,10.10
2019-04-27T05:08:05.465Z,10.10
2019-04-27T05:09:05.745Z,10.20
2019-04-27T05:10:05.042Z,10.10
2019-04-27T05:11:11.588Z,10.20
2019-04-27T05:12:15.721Z,10.20
2019-04-27T05:13:09.072Z,10.20
2019-04-27T05:14:09.786Z,10.20
2019-04-27T05:15:09.091Z,10.20
2019-04-27T05:16:05.251Z,10.20
2019-04-27T05:17:09.434Z,10.20
2019-04-27T05:18:05.671Z,10.20
2019-04-27T05:19:05.131Z,10.20
2019-04-27T05:20:06.218Z,10.20
2019-04-27T05:21:05.625Z,10.30
2019-04-27T05:22:05.059Z,10.20
2019-04-27T05:23:05.475Z,10.30
2019-04-27T05:24:09.128Z,10.30
2019-04-27T05:25:05.587Z,10.30
2019-04-27T05:26:04.986Z,10.30
2019-04-27T05:27:05.758Z,10.40
2019-04-27T05:28:05.277Z,10.40
2019-04-27T05:29:09.081Z,10.40
2019-04-27T05:30:05.366Z,10.30
2019-04-27T05:31:04.944Z,10.40
2019-04-27T05:32:05.233Z,10.40
2019-04-27T05:33:05.480Z,10.40
2019-04-27T05:34:06.809Z,10.40
2019-04-27T05:35:05.064Z,10.40
2019-04-27T05:36:05.445Z,10.50
2019-04-27T05:37:08.882Z,10.50
2019-04-27T05:38:07.121Z,10.50
2019-04-27T05:39:05.125Z,10.50
2019-04-27T05:40:05.366Z,10.50
2019-04-27T05:41:05.541Z,10.50
2019-04-27T05:42:04.733Z,10.50
2019-04-27T05:43:10.018Z,10.50
2019-04-27T05:44:07.524Z,10.50
2019-04-27T05:45:09.253Z,10.50
2019-04-27T05:46:09.880Z,10.60
2019-04-27T05:47:09.200Z,10.60
2019-04-27T05:48:09.210Z,10.50
2019-04-27T05:49:06.129Z,10.60
2019-04-27T05:50:05.633Z,10.60
2019-04-27T05:51:09.065Z,10.60
2019-04-27T05:52:08.446Z,10.60
2019-04-27T05:53:05.322Z,10.60
2019-04-27T05:54:05.566Z,10.60
2019-04-27T05:55:04.715Z,10.70
2019-04-27T05:56:10.068Z,10.70
2019-04-27T05:57:05.385Z,10.70
2019-04-27T05:58:09.285Z,10.70
2019-04-27T05:59:05.572Z,10.70
2019-04-27T06:00:04.996Z,10.70
2019-04-27T06:01:05.605Z,10.70
2019-04-27T06:02:08.821Z,10.70
2019-04-27T06:03:05.554Z,10.70
2019-04-27T06:04:04.899Z,10.70
2019-04-27T06:05:05.174Z,10.80
2019-04-27T06:06:05.351Z,10.80
2019-04-27T06:07:05.559Z,10.80
2019-04-27T06:08:04.862Z,10.80
2019-04-27T06:09:05.167Z,10.80
2019-04-27T06:10:09.466Z,10.80
2019-04-27T06:11:05.746Z,10.80
2019-04-27T06:12:04.881Z,10.80
2019-04-27T06:13:05.344Z,10.90
2019-04-27T06:14:09.636Z,10.90
2019-04-27T06:15:09.505Z,10.90
2019-04-27T06:16:09.387Z,10.90
2019-04-27T06:17:05.854Z,10.90
2019-04-27T06:18:05.144Z,10.90
2019-04-27T06:19:05.350Z,11.00
2019-04-27T06:20:05.534Z,10.90
2019-04-27T06:21:09.723Z,11.00
2019-04-27T06:22:05.084Z,11.00
2019-04-27T06:23:08.924Z,11.00
2019-04-27T06:24:05.096Z,11.00
2019-04-27T06:25:11.260Z,11.10
2019-04-27T06:26:09.142Z,11.10
2019-04-27T06:27:04.830Z,11.10
2019-04-27T06:28:10.226Z,11.10
2019-04-27T06:29:09.439Z,11.10
2019-04-27T06:30:05.599Z,11.10
2019-04-27T06:31:08.759Z,11.10
2019-04-27T06:32:08.949Z,11.20
2019-04-27T06:33:04.966Z,11.10
2019-04-27T06:34:05.214Z,11.10
2019-04-27T06:35:08.811Z,11.20
2019-04-27T06:36:05.268Z,11.10
2019-04-27T06:37:09.784Z,11.20
2019-04-27T06:38:04.917Z,11.20
2019-04-27T06:39:05.080Z,11.20
2019-04-27T06:40:05.416Z,11.20
2019-04-27T06:41:10.850Z,11.30
2019-04-27T06:42:15.923Z,11.30
2019-04-27T06:43:05.642Z,11.30
2019-04-27T06:44:05.007Z,11.30
2019-04-27T06:45:07.737Z,11.40
2019-04-27T06:46:05.087Z,11.40
2019-04-27T06:47:05.442Z,11.40
2019-04-27T06:48:09.590Z,11.40
2019-04-27T06:49:05.038Z,11.40
2019-04-27T06:50:05.264Z,11.40
2019-04-27T06:51:05.851Z,11.50
2019-04-27T06:52:05.424Z,11.50
2019-04-27T06:53:09.030Z,11.60
2019-04-27T06:54:09.243Z,11.60
2019-04-27T06:55:06.322Z,11.60
2019-04-27T06:56:06.140Z,11.60
2019-04-27T06:57:05.482Z,11.70
2019-04-27T06:58:08.944Z,11.70
2019-04-27T06:59:05.379Z,11.70
2019-04-27T07:00:05.603Z,11.70
2019-04-27T07:01:09.444Z,11.70
2019-04-27T07:02:08.661Z,11.80
2019-04-27T07:03:10.619Z,11.80
2019-04-27T07:04:05.601Z,11.80
2019-04-27T07:05:04.959Z,11.80
2019-04-27T07:06:10.265Z,11.90
2019-04-27T07:07:09.728Z,11.90
2019-04-27T07:08:08.973Z,11.90
2019-04-27T07:09:09.556Z,12.00
2019-04-27T07:10:04.936Z,12.00
2019-04-27T07:11:05.244Z,12.00
2019-04-27T07:12:05.414Z,12.00
2019-04-27T07:13:06.901Z,12.00
2019-04-27T07:14:05.095Z,12.10
2019-04-27T07:15:08.854Z,12.10
2019-04-27T07:16:05.344Z,12.10
2019-04-27T07:17:05.604Z,12.20
2019-04-27T07:18:04.842Z,12.20
2019-04-27T07:19:09.207Z,12.30
2019-04-27T07:20:05.663Z,12.30
2019-04-27T07:21:16.139Z,12.30
2019-04-27T07:22:15.654Z,12.30
2019-04-27T07:23:04.768Z,12.30
2019-04-27T07:24:10.190Z,12.40
2019-04-27T07:25:09.006Z,12.40
2019-04-27T07:26:05.360Z,12.40
2019-04-27T07:27:09.327Z,12.50
2019-04-27T07:28:05.109Z,12.50
2019-04-27T07:29:09.528Z,12.60
2019-04-27T07:30:05.689Z,12.50
2019-04-27T07:31:09.901Z,12.60
2019-04-27T07:32:04.909Z,12.60
2019-04-27T07:33:05.088Z,12.60
2019-04-27T07:34:09.290Z,12.60
2019-04-27T07:35:05.707Z,12.60
2019-04-27T07:36:04.998Z,12.70
2019-04-27T07:37:05.130Z,12.70
2019-04-27T07:38:05.576Z,12.80
2019-04-27T07:39:05.030Z,12.80
2019-04-27T07:40:09.035Z,12.90
2019-04-27T07:41:05.449Z,12.90
2019-04-27T07:42:04.887Z,12.90
2019-04-27T07:43:09.059Z,13.00
2019-04-27T07:44:05.294Z,13.00
2019-04-27T07:45:09.277Z,13.10
2019-04-27T07:46:08.863Z,13.10
2019-04-27T07:47:05.357Z,13.10
2019-04-27T07:48:04.802Z,13.10
2019-04-27T07:49:09.277Z,13.20
2019-04-27T07:50:05.428Z,13.20
2019-04-27T07:51:13.246Z,13.20
2019-04-27T07:52:08.710Z,13.20
2019-04-27T07:53:04.863Z,13.30
2019-04-27T07:54:05.092Z,13.30
2019-04-27T07:55:05.258Z,13.30
2019-04-27T07:56:09.211Z,13.30
2019-04-27T07:57:05.140Z,13.40
2019-04-27T07:58:05.357Z,13.40
2019-04-27T07:59:05.716Z,13.40
2019-04-27T08:00:04.920Z,13.40
2019-04-27T08:01:09.262Z,13.50
2019-04-27T08:02:05.487Z,13.50
2019-04-27T08:03:05.692Z,13.50
2019-04-27T08:04:08.935Z,13.50
2019-04-27T08:05:05.249Z,13.50
2019-04-27T08:06:04.820Z,13.50
2019-04-27T08:07:09.135Z,13.50
2019-04-27T08:08:05.293Z,13.50
2019-04-27T08:09:05.457Z,13.50
2019-04-27T08:10:04.749Z,13.60
2019-04-27T08:11:04.965Z,13.50
2019-04-27T08:12:07.850Z,13.60
2019-04-27T08:13:10.007Z,13.60
2019-04-27T08:14:05.057Z,13.60
2019-04-27T08:15:05.270Z,13.60
2019-04-27T08:16:08.641Z,13.70
2019-04-27T08:17:07.425Z,13.70
2019-04-27T08:18:05.449Z,13.70
2019-04-27T08:19:05.724Z,13.70
2019-04-27T08:20:09.009Z,13.80
2019-04-27T08:21:12.972Z,13.80
2019-04-27T08:22:05.052Z,13.80
2019-04-27T08:23:09.406Z,13.90
2019-04-27T08:24:05.712Z,13.90
2019-04-27T08:25:09.359Z,13.90
2019-04-27T08:26:04.869Z,13.90
2019-04-27T08:27:05.129Z,14.00
2019-04-27T08:28:05.777Z,14.00
2019-04-27T08:29:04.878Z,14.00
2019-04-27T08:30:05.204Z,14.00
2019-04-27T08:31:11.396Z,14.10
2019-04-27T08:32:13.046Z,14.20
2019-04-27T08:33:05.171Z,14.20
2019-04-27T08:34:05.441Z,14.20
2019-04-27T08:35:07.490Z,14.20
2019-04-27T08:36:08.967Z,14.30
2019-04-27T08:37:05.056Z,14.30
2019-04-27T08:38:09.027Z,14.30
2019-04-27T08:39:05.423Z,14.30
2019-04-27T08:40:10.614Z,14.30
2019-04-27T08:41:08.961Z,14.30
2019-04-27T08:42:09.495Z,14.30
2019-04-27T08:43:04.822Z,14.30
2019-04-27T08:44:05.461Z,14.30
2019-04-27T08:45:05.819Z,14.30
2019-04-27T08:46:08.727Z,14.30
2019-04-27T08:47:12.662Z,14.40
2019-04-27T08:48:05.078Z,14.30
2019-04-27T08:49:08.338Z,14.40
2019-04-27T08:50:05.089Z,14.40
2019-04-27T08:51:05.214Z,14.40
2019-04-27T08:52:05.559Z,14.40
2019-04-27T08:53:04.734Z,14.40
2019-04-27T08:54:04.873Z,14.50
2019-04-27T08:55:09.326Z,14.50
2019-04-27T08:56:10.166Z,14.60
2019-04-27T08:57:05.218Z,14.60
2019-04-27T08:58:05.499Z,14.60
2019-04-27T08:59:05.720Z,14.60
2019-04-27T09:00:04.882Z,14.70
2019-04-27T09:01:10.079Z,14.70
2019-04-27T09:02:10.461Z,14.80
2019-04-27T09:03:05.500Z,14.80
2019-04-27T09:04:05.153Z,14.80
2019-04-27T09:05:09.312Z,14.90
2019-04-27T09:06:05.658Z,14.90
2019-04-27T09:07:05.342Z,15.00
2019-04-27T09:08:08.693Z,15.10
2019-04-27T09:09:09.459Z,15.10
2019-04-27T09:10:08.627Z,15.20
2019-04-27T09:11:08.866Z,15.20
2019-04-27T09:12:05.306Z,15.20
2019-04-27T09:13:05.573Z,15.30
2019-04-27T09:14:05.193Z,15.30
2019-04-27T09:15:05.460Z,15.30
2019-04-27T09:16:05.718Z,15.40
2019-04-27T09:17:05.146Z,15.40
2019-04-27T09:18:05.336Z,15.50
2019-04-27T09:19:05.581Z,15.50
2019-04-27T09:20:04.733Z,15.60
2019-04-27T09:21:04.950Z,15.60
2019-04-27T09:22:13.243Z,15.70
2019-04-27T09:23:09.821Z,15.80
2019-04-27T09:24:05.065Z,15.80
2019-04-27T09:25:05.329Z,15.90
2019-04-27T09:26:05.625Z,15.90
2019-04-27T09:27:07.338Z,16.00
2019-04-27T09:28:05.165Z,16.00
2019-04-27T09:29:05.339Z,16.10
2019-04-27T09:30:05.609Z,16.20
2019-04-27T09:31:05.067Z,16.20
2019-04-27T09:32:05.241Z,16.20
2019-04-27T09:33:05.582Z,16.30
2019-04-27T09:34:05.617Z,16.30
2019-04-27T09:35:05.864Z,16.40
2019-04-27T09:36:06.088Z,16.40
2019-04-27T09:37:10.450Z,16.50
2019-04-27T09:38:07.049Z,16.50
2019-04-27T09:39:06.240Z,16.50
2019-04-27T09:40:11.313Z,16.50
2019-04-27T09:41:07.143Z,16.60
2019-04-27T09:42:06.465Z,16.60
2019-04-27T09:43:04.977Z,16.60
2019-04-27T09:44:05.887Z,16.60
2019-04-27T09:45:06.621Z,16.70
2019-04-27T09:46:05.785Z,16.70
2019-04-27T09:47:10.353Z,16.70
2019-04-27T09:48:06.626Z,16.80
2019-04-27T09:49:08.124Z,16.80
2019-04-27T09:50:05.747Z,16.80
2019-04-27T09:51:06.399Z,16.80
2019-04-27T09:52:06.281Z,16.90
2019-04-27T09:53:10.307Z,17.00
2019-04-27T09:54:05.845Z,17.00
2019-04-27T09:55:06.527Z,17.00
2019-04-27T09:56:05.890Z,17.10
2019-04-27T09:57:06.904Z,17.00
2019-04-27T09:58:05.738Z,17.10
2019-04-27T09:59:06.383Z,17.10
2019-04-27T10:00:06.350Z,17.10
2019-04-27T10:01:06.433Z,17.20
2019-04-27T10:02:08.565Z,17.30
2019-04-27T10:03:06.375Z,17.30
2019-04-27T10:04:06.162Z,17.40
2019-04-27T10:05:05.969Z,17.40
2019-04-27T10:06:05.870Z,17.50
2019-04-27T10:07:06.185Z,17.60
2019-04-27T10:08:13.040Z,17.60
2019-04-27T10:09:06.564Z,17.70
2019-04-27T10:10:06.418Z,17.70
2019-04-27T10:11:05.917Z,17.80
2019-04-27T10:12:07.305Z,17.80
2019-04-27T10:13:06.743Z,17.80
2019-04-27T10:14:05.881Z,17.80
2019-04-27T10:15:06.103Z,17.80
2019-04-27T10:16:05.534Z,17.90
2019-04-27T10:17:05.642Z,17.90
2019-04-27T10:18:06.046Z,17.90
2019-04-27T10:19:10.448Z,17.80
2019-04-27T10:20:06.013Z,17.80
2019-04-27T10:21:07.499Z,17.80
2019-04-27T10:22:05.720Z,17.80
2019-04-27T10:23:06.200Z,17.70
2019-04-27T10:24:06.587Z,17.60
2019-04-27T10:25:05.067Z,17.50
2019-04-27T10:26:05.863Z,17.50
2019-04-27T10:27:08.012Z,17.40
2019-04-27T10:28:06.698Z,17.40
2019-04-27T10:29:06.152Z,17.40
2019-04-27T10:30:05.835Z,17.40
2019-04-27T10:31:10.435Z,17.30
2019-04-27T10:32:06.196Z,17.30
2019-04-27T10:33:08.020Z,17.30
2019-04-27T10:34:05.962Z,17.30
2019-04-27T10:35:05.803Z,17.30
2019-04-27T10:36:06.450Z,17.30
2019-04-27T10:37:06.022Z,17.20
2019-04-27T10:38:05.435Z,17.20
2019-04-27T10:39:13.219Z,17.20
2019-04-27T10:40:06.248Z,17.20
2019-04-27T10:41:05.622Z,17.20
2019-04-27T10:42:06.492Z,17.20
2019-04-27T10:43:06.247Z,17.10
2019-04-27T10:44:05.760Z,17.10
2019-04-27T10:45:06.376Z,17.10
2019-04-27T10:46:09.900Z,17.00
2019-04-27T10:47:05.844Z,17.00
2019-04-27T10:48:05.178Z,16.90
2019-04-27T10:49:05.930Z,16.90
2019-04-27T10:50:05.910Z,16.80
2019-04-27T10:51:10.462Z,16.90
2019-04-27T10:52:05.935Z,16.80
2019-04-27T10:53:12.901Z,16.90
2019-04-27T10:54:15.054Z,17.00
2019-04-27T10:55:05.945Z,17.00
2019-04-27T10:56:05.660Z,17.00
2019-04-27T10:57:06.044Z,17.20
2019-04-27T10:58:07.870Z,17.40
2019-04-27T10:59:06.226Z,17.40
2019-04-27T11:00:06.667Z,17.50
2019-04-27T11:01:05.566Z,17.60
2019-04-27T11:02:04.968Z,17.70
2019-04-27T11:03:06.576Z,17.80
2019-04-27T11:04:05.922Z,17.80
2019-04-27T11:05:06.738Z,17.90
2019-04-27T11:06:05.896Z,17.90
2019-04-27T11:07:05.424Z,17.90
2019-04-27T11:08:06.571Z,17.90
2019-04-27T11:09:05.987Z,17.90
2019-04-27T11:10:05.585Z,17.90
2019-04-27T11:11:07.461Z,17.80
2019-04-27T11:12:06.848Z,17.80
2019-04-27T11:13:06.215Z,17.80
2019-04-27T11:14:06.839Z,17.70
2019-04-27T11:15:05.813Z,17.70
2019-04-27T11:16:07.405Z,17.70
2019-04-27T11:17:06.251Z,17.60
2019-04-27T11:18:06.311Z,17.70
2019-04-27T11:19:06.545Z,17.70
2019-04-27T11:20:07.640Z,17.60
2019-04-27T11:21:08.151Z,17.70
2019-04-27T11:22:07.045Z,17.70
2019-04-27T11:23:07.597Z,17.80
2019-04-27T11:24:05.508Z,17.80
2019-04-27T11:25:06.205Z,17.90
2019-04-27T11:26:07.242Z,17.90
2019-04-27T11:27:05.828Z,18.00
2019-04-27T11:28:05.770Z,17.90
2019-04-27T11:29:05.062Z,18.00
2019-04-27T11:30:06.690Z,18.00
2019-04-27T11:31:04.913Z,18.00
2019-04-27T11:32:12.807Z,18.00
2019-04-27T11:33:06.217Z,18.00
2019-04-27T11:34:06.656Z,18.00
2019-04-27T11:35:06.466Z,18.00
2019-04-27T11:36:06.263Z,18.00
2019-04-27T11:37:05.543Z,17.90
2019-04-27T11:38:05.582Z,17.90
2019-04-27T11:39:09.991Z,17.80
2019-04-27T11:40:05.041Z,17.80
2019-04-27T11:41:10.429Z,17.70
2019-04-27T11:42:09.043Z,17.80
2019-04-27T11:43:05.894Z,17.80
2019-04-27T11:44:10.295Z,17.90
2019-04-27T11:45:06.550Z,17.90
2019-04-27T11:46:06.136Z,18.00
2019-04-27T11:47:05.987Z,18.00
2019-04-27T11:48:05.829Z,18.10
2019-04-27T11:49:06.718Z,18.20
2019-04-27T11:50:06.338Z,18.30
2019-04-27T11:51:06.834Z,18.40
2019-04-27T11:52:06.528Z,18.40
2019-04-27T11:53:19.404Z,18.60
2019-04-27T11:54:12.564Z,18.70
2019-04-27T11:55:05.810Z,18.70
2019-04-27T11:56:10.460Z,18.80
2019-04-27T11:57:05.556Z,18.80
2019-04-27T11:58:06.353Z,18.90
2019-04-27T11:59:06.581Z,19.00
2019-04-27T12:00:07.546Z,19.00
2019-04-27T12:01:04.807Z,19.00
2019-04-27T12:02:08.808Z,18.90
2019-04-27T12:03:12.453Z,18.90
2019-04-27T12:04:05.890Z,18.90
2019-04-27T12:05:07.627Z,18.90
2019-04-27T12:06:07.537Z,18.90
2019-04-27T12:07:06.512Z,18.80
2019-04-27T12:08:06.365Z,18.80
2019-04-27T12:09:08.196Z,18.70
2019-04-27T12:10:10.330Z,18.80
2019-04-27T12:11:05.877Z,18.70
2019-04-27T12:12:13.429Z,18.80
2019-04-27T12:13:07.516Z,18.80
2019-04-27T12:14:06.177Z,18.70
2019-04-27T12:15:08.017Z,18.70
2019-04-27T12:16:10.133Z,18.60
2019-04-27T12:17:06.319Z,18.60
2019-04-27T12:18:08.789Z,18.60
2019-04-27T12:19:06.511Z,18.50
2019-04-27T12:20:04.896Z,18.50
2019-04-27T12:21:10.110Z,18.50
2019-04-27T12:22:06.240Z,18.50
2019-04-27T12:23:06.489Z,18.50
2019-04-27T12:24:05.602Z,18.60
2019-04-27T12:25:09.931Z,18.70
2019-04-27T12:26:05.775Z,18.70
2019-04-27T12:27:10.249Z,18.70
2019-04-27T12:28:05.359Z,18.70
2019-04-27T12:29:06.221Z,18.80
2019-04-27T12:30:06.239Z,18.70
2019-04-27T12:31:08.672Z,18.80
2019-04-27T12:32:05.638Z,18.80
2019-04-27T12:33:05.066Z,18.80
2019-04-27T12:34:06.083Z,18.80
2019-04-27T12:35:06.691Z,18.90
2019-04-27T12:36:06.717Z,18.90
2019-04-27T12:37:06.976Z,19.00
2019-04-27T12:38:05.922Z,19.00
2019-04-27T12:39:07.796Z,19.10
2019-04-27T12:40:05.904Z,19.10
2019-04-27T12:41:06.743Z,19.00
2019-04-27T12:42:06.055Z,19.00
2019-04-27T12:43:05.478Z,19.00
2019-04-27T12:44:10.280Z,18.90
2019-04-27T12:45:05.318Z,18.90
2019-04-27T12:46:05.948Z,18.90
2019-04-27T12:47:07.844Z,18.80
2019-04-27T12:48:04.872Z,18.80
2019-04-27T12:49:05.914Z,18.70
2019-04-27T12:50:07.917Z,18.70
2019-04-27T12:51:05.055Z,18.70
2019-04-27T12:52:05.879Z,18.80